航空気象通報

ウインドサーファーのための航空気象通報による風予報です。

4/5-4/7の航空気象通報

2017年04月05日 23時42分52秒 | TAF
羽田空港
TAF RJTT 051105Z 0512/0618 21016KT 9999 FEW030
BECMG 0600/0603 19020G30KT
TEMPO 0603/0609 19028G40KT
日本時間5日21時-6日09時:210度から16ノットの風
09-12時:風が変化
12時-7日03時:190度から20ノット、突風30ノット
但し、6日12-18時の間:190度から28ノット、突風40ノット


静岡空港
TAF RJNS 051105Z 0512/0618 32004KT 9999 FEW015 SCT025
BECMG 0522/0600 18012KT
BECMG 0609/0612 22012KT
TEMPO 0612/0618 4000 SHRA BR FEW003 BKN005
日本時間5日21時-6日07時:320度から4ノットの風
07-09時:風が変化
09-18時:180度から12ノットの風
18-21時:風が変化
21時-7日03時:220度から12ノットの風

但し、6日21時-7日03時の間:ときどき

福岡空港
TAF RJFF 051106Z 0512/0618 15016KT 9000 -RA FEW020 SCT040
TEMPO 0521/0603 17018G28KT 4000 SHRA BR
TEMPO 0603/0612 16020G30KT 3000 SHRA BR
BECMG 0612/0615 13005KT
日本時間5日21時-6日21時:150度から16ノットの風
21-24時:風が変化
7日00-03時:130度から5ノットの風


那覇空港
TAF ROAH 051105Z 0512/0618 14010KT 9999 FEW025 SCT040
日本時間5日21時-7日03時:140度から10ノットの風


石垣空港
TAF ROIG 051108Z 0512/0618 16008KT 9999 FEW020 BKN035
日本時間5日21時-7日03時:160度から8ノットの風


マウイのカフルイ空港
PHOG 051120Z 0512/0612 05012KT P6SM FEW035 SCT050
FM052000 05017G27KT P6SM FEW035 SCT050
FM060600 05009KT P6SM SCT040 AMD LTD TO VIS AND WIND TIL 051600
ハワイ時間5日02-10時:050度から12ノットの風
10-20時:050度から17ノット、突風27ノット
20時-6日02時:050度から9ノットの風


サイパン空港
TAF PGSN 051130Z 0512/0612 05015KT P6SM VCSH SCT018 SCT045
マリアナ時間5日22時-6日22時:050度から15ノットの風
ジャンル:
ウェブログ
コメント   この記事についてブログを書く
この記事をはてなブックマークに追加
« 4/4-4/6の航空気象通報 | トップ | 4/6-4/8の航空気象通報 »
最近の画像もっと見る

コメントを投稿

ブログ作成者から承認されるまでコメントは反映されません。

TAF」カテゴリの最新記事

トラックバック

この記事のトラックバック  Ping-URL
ブログ作成者から承認されるまでトラックバックは反映されません。
  • 30日以上前の記事に対するトラックバックは受け取らないよう設定されております。
  • 送信元の記事内容が半角英数のみのトラックバックは受け取らないよう設定されております。
  • このブログへのリンクがない記事からのトラックバックは受け取らないよう設定されております。
  • ※ブログ管理者のみ、編集画面で設定の変更が可能です。